Time;durP1;ratioP1;P1;durP2;ratioP2;P2;SDS_P1;SDS_P2;PMS_P1;PMS_P2;Temp;Humidity;BMP_temperature;BMP_pressure;BME280_temperature;BME280_humidity;BME280_pressure;Samples;Min_cycle;Max_cycle;Signal;HPM_P1;HPM_P2
2021/10/01 00:02:06;;;;;;;7.82;2.00;;;;;;;-149.78;100.00;50305.22;4843500;29;20046;-74
2021/10/01 00:04:32;;;;;;;4.05;1.70;;;;;;;-149.78;100.00;50338.44;4828386;29;20126;-73
2021/10/01 00:06:58;;;;;;;7.55;2.40;;;;;;;-149.78;100.00;50350.19;4826795;29;20072;-73
2021/10/01 00:09:24;;;;;;;3.00;1.55;;;;;;;-149.78;100.00;50359.97;4843260;29;20074;-73
2021/10/01 00:11:52;;;;;;;7.82;1.92;;;;;;;-149.78;100.00;50322.81;4809311;29;20042;-73
2021/10/01 00:14:22;;;;;;;4.32;1.80;;;;;;;-149.78;100.00;50342.38;4840779;29;20124;-78
2021/10/01 00:16:48;;;;;;;6.68;1.95;;;;;;;-149.78;100.00;50332.59;4839047;29;20098;-76
2021/10/01 00:19:15;;;;;;;4.00;1.77;;;;;;;-149.78;100.00;50350.19;4840787;29;20061;-76
2021/10/01 00:21:41;;;;;;;5.28;1.70;;;;;;;-149.78;100.00;50322.81;4821685;29;20038;-77
2021/10/01 00:24:09;;;;;;;2.42;1.60;;;;;;;-149.78;100.00;50342.38;4843193;29;20045;-76
2021/10/01 00:26:37;;;;;;;5.80;1.98;;;;;;;-149.78;100.00;50320.84;4823323;29;20038;-76
2021/10/01 00:29:03;;;;;;;6.20;1.90;;;;;;;-149.78;100.00;50322.81;4825752;29;20041;-76
2021/10/01 00:31:29;;;;;;;5.65;2.10;;;;;;;-149.78;100.00;50334.53;4838951;29;20536;-76
2021/10/01 00:33:55;;;;;;;3.17;1.40;;;;;;;-149.78;100.00;50354.09;4822113;29;20042;-76
2021/10/01 00:36:20;;;;;;;4.38;1.60;;;;;;;-149.78;100.00;50324.75;4839598;29;20042;-76
2021/10/01 00:38:49;;;;;;;5.78;2.05;;;;;;;-149.78;100.00;50338.44;4837254;29;20095;-76
2021/10/01 00:41:15;;;;;;;3.65;1.48;;;;;;;-149.78;100.00;50361.91;4843065;29;20034;-75
2021/10/01 00:43:40;;;;;;;5.45;1.70;;;;;;;-149.78;100.00;50336.50;4842867;29;20038;-75
2021/10/01 00:46:06;;;;;;;3.90;1.90;;;;;;;-149.78;100.00;50334.53;4827570;29;20466;-76
2021/10/01 00:48:31;;;;;;;4.95;1.65;;;;;;;-149.78;100.00;50342.38;4825246;29;20424;-76
2021/10/01 00:50:58;;;;;;;6.47;2.25;;;;;;;-149.78;100.00;50336.50;4843044;29;20061;-75
2021/10/01 00:53:24;;;;;;;4.10;1.75;;;;;;;-149.78;100.00;50303.25;4843182;29;20037;-75
2021/10/01 00:55:50;;;;;;;6.00;1.50;;;;;;;-149.78;100.00;50328.69;4839477;29;20471;-77
2021/10/01 00:58:15;;;;;;;6.13;1.60;;;;;;;-149.78;100.00;50291.50;4824847;29;20076;-76
2021/10/01 01:01:07;;;;;;;6.40;1.63;;;;;;;-149.78;100.00;50320.84;4822722;29;20049;-75
2021/10/01 01:03:34;;;;;;;5.97;2.00;;;;;;;-149.78;100.00;50309.13;4839176;29;20129;-75
2021/10/01 01:06:10;;;;;;;7.25;1.95;;;;;;;-149.78;100.00;50346.28;4841752;29;20479;-77
2021/10/01 01:08:49;;;;;;;5.03;1.52;;;;;;;-149.78;100.00;50350.19;4841644;29;20078;-76
2021/10/01 01:11:34;;;;;;;5.55;1.35;;;;;;;-149.78;100.00;50350.19;4808290;29;20053;-76
2021/10/01 01:14:10;;;;;;;6.72;1.98;;;;;;;-149.78;100.00;50365.84;4826082;29;20040;-76
2021/10/01 01:16:37;;;;;;;3.75;1.48;;;;;;;-149.78;100.00;50358.00;4814771;29;20066;-76
2021/10/01 01:19:11;;;;;;;3.13;1.08;;;;;;;-149.78;100.00;50334.53;4842962;29;20046;-76
2021/10/01 01:22:09;;;;;;;5.88;1.60;;;;;;;-149.78;100.00;50354.09;4833123;29;20467;-77
2021/10/01 01:25:01;;;;;;;5.97;1.52;;;;;;;-149.78;100.00;50322.81;4818117;29;20395;-76
2021/10/01 01:27:50;;;;;;;4.85;1.63;;;;;;;-149.78;100.00;50354.09;4830997;29;20040;-75
2021/10/01 01:30:21;;;;;;;6.20;1.83;;;;;;;-149.78;100.00;50338.44;4821850;29;20102;-75
2021/10/01 01:32:49;;;;;;;4.00;1.65;;;;;;;-149.78;100.00;50334.53;4841035;29;20374;-75
2021/10/01 01:35:23;;;;;;;6.18;1.80;;;;;;;-149.78;100.00;50361.91;4821872;29;20042;-76
2021/10/01 01:38:07;;;;;;;2.72;1.45;;;;;;;-149.78;100.00;50373.66;4838861;29;20509;-76
2021/10/01 01:40:34;;;;;;;3.95;1.55;;;;;;;-149.78;100.00;50358.00;4840317;29;20211;-76
2021/10/01 01:43:05;;;;;;;5.22;1.70;;;;;;;-149.78;100.00;50352.16;4822437;29;20090;-76
2021/10/01 01:45:31;;;;;;;5.47;1.83;;;;;;;-149.78;100.00;50358.00;4841328;29;20097;-76
2021/10/01 01:47:58;;;;;;;6.15;1.58;;;;;;;-149.78;100.00;50358.00;4821223;29;20091;-75
2021/10/01 01:50:24;;;;;;;6.20;2.05;;;;;;;-149.78;100.00;50348.22;4839830;29;21640;-76
2021/10/01 01:52:53;;;;;;;5.22;1.67;;;;;;;-149.78;100.00;50336.50;4841719;29;20034;-75
2021/10/01 01:55:19;;;;;;;6.88;1.98;;;;;;;-149.78;100.00;50373.66;4834427;29;20073;-76
2021/10/01 01:57:47;;;;;;;5.38;2.63;;;;;;;-149.78;100.00;50358.00;4838652;29;20057;-75
2021/10/01 02:00:13;;;;;;;7.88;2.60;;;;;;;-149.78;100.00;50354.09;4832195;29;20117;-76
2021/10/01 02:02:40;;;;;;;8.93;2.10;;;;;;;-149.78;100.00;50346.28;4806151;29;20454;-76
2021/10/01 02:05:07;;;;;;;6.40;1.98;;;;;;;-149.78;100.00;50313.03;4824639;29;20490;-76
2021/10/01 02:07:33;;;;;;;5.90;2.25;;;;;;;-149.78;100.00;50346.28;4835161;29;20432;-76
2021/10/01 02:10:00;;;;;;;3.08;1.83;;;;;;;-149.78;100.00;50350.19;4840860;29;20044;-75
2021/10/01 02:12:28;;;;;;;9.20;2.55;;;;;;;-149.78;100.00;50377.56;4824615;29;20501;-76
2021/10/01 02:14:55;;;;;;;5.93;2.30;;;;;;;-149.78;100.00;50346.28;4821434;29;20506;-76
2021/10/01 02:17:21;;;;;;;5.47;1.90;;;;;;;-149.78;100.00;50350.19;4832645;29;20064;-75
2021/10/01 02:19:49;;;;;;;6.13;1.92;;;;;;;-149.78;100.00;50330.63;4841116;29;20042;-77
2021/10/01 02:22:18;;;;;;;7.03;2.08;;;;;;;-149.78;100.00;50358.00;4840452;29;20038;-76
2021/10/01 02:24:45;;;;;;;4.75;1.90;;;;;;;-149.78;100.00;50346.28;4837470;29;20034;-76
2021/10/01 02:27:19;;;;;;;4.10;1.92;;;;;;;-149.78;100.00;50342.38;4837368;29;20046;-76
2021/10/01 02:29:52;;;;;;;4.38;1.90;;;;;;;-149.78;100.00;50363.88;4839948;29;20029;-76
2021/10/01 02:32:23;;;;;;;4.38;1.83;;;;;;;-149.78;100.00;50377.56;4824592;29;20080;-76
2021/10/01 02:34:50;;;;;;;2.85;1.45;;;;;;;-149.78;100.00;50361.91;4839518;29;20042;-76
2021/10/01 02:37:17;;;;;;;1.88;1.35;;;;;;;-149.78;100.00;50377.56;4839685;29;20121;-75
2021/10/01 02:39:46;;;;;;;2.58;1.20;;;;;;;-149.78;100.00;50354.09;4838678;29;20053;-76
2021/10/01 02:42:13;;;;;;;1.98;1.20;;;;;;;-149.78;100.00;50358.00;4841286;29;20474;-76
2021/10/01 02:44:41;;;;;;;2.15;1.25;;;;;;;-149.78;100.00;50369.75;4842070;29;20046;-76
2021/10/01 02:47:07;;;;;;;1.33;1.20;;;;;;;-149.78;100.00;50342.38;4838167;29;20045;-76
2021/10/01 02:49:36;;;;;;;3.95;0.95;;;;;;;-149.78;100.00;50359.97;4838763;29;20046;-77
2021/10/01 02:52:11;;;;;;;3.45;1.20;;;;;;;-149.78;100.00;50389.31;4837704;29;20034;-76
2021/10/01 02:54:48;;;;;;;0.90;0.77;;;;;;;-149.78;100.00;50352.16;4837339;29;20117;-76
2021/10/01 02:57:19;;;;;;;1.88;1.05;;;;;;;-149.78;100.00;50377.56;4822879;29;20525;-76
2021/10/01 02:59:46;;;;;;;3.03;1.30;;;;;;;-149.78;100.00;50342.38;4825348;29;20395;-76
2021/10/01 03:02:13;;;;;;;2.78;0.73;;;;;;;-149.78;100.00;50342.38;4825667;29;20053;-76
2021/10/01 03:04:40;;;;;;;2.15;0.80;;;;;;;-149.78;100.00;50361.91;4841649;29;20034;-76
2021/10/01 03:07:07;;;;;;;1.30;0.70;;;;;;;-149.78;100.00;50377.56;4837335;29;20046;-76
2021/10/01 03:09:35;;;;;;;0.50;0.50;;;;;;;-149.78;100.00;50344.31;4839002;29;20044;-76
2021/10/01 03:12:01;;;;;;;0.50;0.50;;;;;;;-149.78;100.00;50377.56;4839551;29;20046;-76
2021/10/01 03:14:28;;;;;;;0.45;0.45;;;;;;;-149.78;100.00;50352.16;4841357;29;20052;-75
2021/10/01 03:16:56;;;;;;;1.02;0.57;;;;;;;-149.78;100.00;50356.06;4838936;29;20120;-75
2021/10/01 03:19:22;;;;;;;2.97;0.50;;;;;;;-149.78;100.00;50348.22;4807722;29;20037;-75
2021/10/01 03:21:54;;;;;;;0.85;0.50;;;;;;;-149.78;100.00;50365.84;4839718;29;20049;-75
2021/10/01 03:24:22;;;;;;;1.95;0.52;;;;;;;-149.78;100.00;50375.63;4839399;29;20112;-75
2021/10/01 03:26:51;;;;;;;0.47;0.47;;;;;;;-149.78;100.00;50369.75;4839724;29;20032;-75
2021/10/01 03:29:16;;;;;;;0.40;0.40;;;;;;;-149.78;100.00;50365.84;4838428;29;20038;-75
2021/10/01 03:31:45;;;;;;;1.17;0.47;;;;;;;-149.78;100.00;50367.78;4823811;29;20066;-75
2021/10/01 03:34:10;;;;;;;1.15;0.40;;;;;;;-149.78;100.00;50358.00;4826951;29;20114;-75
2021/10/01 03:36:37;;;;;;;1.98;0.80;;;;;;;-149.78;100.00;50354.09;4827346;29;20072;-75
2021/10/01 03:39:04;;;;;;;2.05;0.52;;;;;;;-149.78;100.00;50393.22;4844833;29;20081;-75
2021/10/01 03:41:29;;;;;;;1.05;0.70;;;;;;;-149.78;100.00;50391.25;4841872;29;20042;-75
2021/10/01 03:43:56;;;;;;;1.17;0.47;;;;;;;-149.78;100.00;50369.75;4836277;29;20042;-75
2021/10/01 03:46:23;;;;;;;0.85;0.50;;;;;;;-149.78;100.00;50358.00;4839513;29;20030;-75
2021/10/01 03:48:49;;;;;;;2.22;0.50;;;;;;;-149.78;100.00;50381.47;4842964;29;20521;-75
2021/10/01 03:51:16;;;;;;;1.30;0.60;;;;;;;-149.78;100.00;50361.91;4844916;29;20046;-76
2021/10/01 03:53:42;;;;;;;1.58;0.60;;;;;;;-149.78;100.00;50361.91;4844892;29;20037;-76
2021/10/01 03:56:16;;;;;;;1.13;0.60;;;;;;;-149.78;100.00;50354.09;4827875;29;20034;-75
2021/10/01 03:58:43;;;;;;;2.30;0.50;;;;;;;-149.78;100.00;50385.38;4833898;29;20049;-76
2021/10/01 04:01:08;;;;;;;1.13;0.57;;;;;;;-149.78;100.00;50377.56;4828096;29;20391;-75
2021/10/01 04:03:34;;;;;;;0.98;0.60;;;;;;;-149.78;100.00;50369.75;4844174;29;20048;-76
2021/10/01 04:05:59;;;;;;;1.75;0.60;;;;;;;-149.78;100.00;50408.84;4815840;29;20034;-75
2021/10/01 04:08:25;;;;;;;1.92;0.90;;;;;;;-149.78;100.00;50361.91;4824131;29;20387;-75
2021/10/01 04:10:50;;;;;;;1.77;0.65;;;;;;;-149.78;100.00;50354.09;4842875;29;20034;-75
2021/10/01 04:13:16;;;;;;;2.30;0.70;;;;;;;-149.78;100.00;50377.56;4828507;29;20404;-75
2021/10/01 04:15:42;;;;;;;2.40;0.65;;;;;;;-149.78;100.00;50404.94;4842077;29;20050;-75
2021/10/01 04:18:07;;;;;;;0.52;0.50;;;;;;;-149.78;100.00;50393.22;4827144;29;20042;-75
2021/10/01 04:20:35;;;;;;;1.45;0.68;;;;;;;-149.78;100.00;50373.66;4812470;29;20058;-75
2021/10/01 04:23:01;;;;;;;2.72;0.95;;;;;;;-149.78;100.00;50383.44;4843608;29;20030;-75
2021/10/01 04:25:27;;;;;;;2.88;0.60;;;;;;;-149.78;100.00;50365.84;4827984;29;20042;-76
2021/10/01 04:27:53;;;;;;;2.60;0.68;;;;;;;-149.78;100.00;50361.91;4838951;29;20120;-75
2021/10/01 04:30:18;;;;;;;1.33;0.55;;;;;;;-149.78;100.00;50373.66;4826822;29;20042;-76
2021/10/01 04:32:47;;;;;;;1.10;0.65;;;;;;;-149.78;100.00;50352.16;4827902;29;20086;-76
2021/10/01 04:35:13;;;;;;;0.95;0.60;;;;;;;-149.78;100.00;50385.38;4828609;29;20121;-76
2021/10/01 04:37:39;;;;;;;1.67;0.60;;;;;;;-149.78;100.00;50403.00;4841920;29;20038;-75
2021/10/01 04:40:06;;;;;;;2.58;0.55;;;;;;;-149.78;100.00;50381.47;4842057;29;20125;-76
2021/10/01 04:42:31;;;;;;;3.28;0.77;;;;;;;-149.78;100.00;50373.66;4843735;29;20077;-77
2021/10/01 04:44:57;;;;;;;1.27;0.40;;;;;;;-149.78;100.00;50432.31;4830324;29;20121;-76
2021/10/01 04:47:22;;;;;;;1.38;0.65;;;;;;;-149.78;100.00;50377.56;4811691;29;20042;-76
2021/10/01 04:49:48;;;;;;;3.83;0.65;;;;;;;-149.78;100.00;50354.09;4810361;29;20891;-76
2021/10/01 04:52:13;;;;;;;0.90;0.60;;;;;;;-149.78;100.00;50361.91;4844221;29;20045;-77
2021/10/01 04:54:39;;;;;;;1.95;0.80;;;;;;;-149.78;100.00;50381.47;4825451;29;20128;-76
2021/10/01 04:57:07;;;;;;;0.70;0.60;;;;;;;-149.78;100.00;50350.19;4827289;29;20044;-77
2021/10/01 04:59:33;;;;;;;2.25;0.93;;;;;;;-149.78;100.00;50358.00;4842650;29;20406;-78
2021/10/01 05:01:59;;;;;;;2.08;0.68;;;;;;;-149.78;100.00;50358.00;4843669;29;20045;-76
2021/10/01 05:04:25;;;;;;;1.23;0.73;;;;;;;-149.78;100.00;50389.31;4827031;29;20041;-77
2021/10/01 05:06:51;;;;;;;1.15;0.68;;;;;;;-149.78;100.00;50377.56;4823164;29;20031;-76
2021/10/01 05:09:16;;;;;;;1.95;0.60;;;;;;;-149.78;100.00;50393.22;4840385;29;20042;-77
2021/10/01 05:11:42;;;;;;;1.23;0.40;;;;;;;-149.78;100.00;50401.03;4826164;29;20448;-76
2021/10/01 05:14:08;;;;;;;1.23;0.70;;;;;;;-149.78;100.00;50397.13;4824710;29;20117;-77
2021/10/01 05:16:33;;;;;;;1.38;0.63;;;;;;;-149.78;100.00;50381.47;4841421;29;20493;-77
2021/10/01 05:18:59;;;;;;;0.82;0.73;;;;;;;-149.78;100.00;50369.75;4841737;29;20041;-77
2021/10/01 05:21:25;;;;;;;3.90;0.68;;;;;;;-149.78;100.00;50389.31;4836917;29;20114;-76
2021/10/01 05:23:54;;;;;;;0.93;0.70;;;;;;;-149.78;100.00;50397.13;4842149;29;20041;-77
2021/10/01 05:26:19;;;;;;;1.15;0.60;;;;;;;-149.78;100.00;50412.78;4837478;29;20061;-77
2021/10/01 05:28:45;;;;;;;1.88;0.68;;;;;;;-149.78;100.00;50408.84;4841946;29;20065;-77
2021/10/01 05:31:10;;;;;;;1.38;0.68;;;;;;;-149.78;100.00;50399.09;4841952;29;20034;-77
2021/10/01 05:33:36;;;;;;;1.58;0.60;;;;;;;-149.78;100.00;50358.00;4823619;29;20046;-77
2021/10/01 05:36:02;;;;;;;3.58;0.73;;;;;;;-149.78;100.00;50426.47;4839224;29;20046;-77
2021/10/01 05:38:29;;;;;;;1.40;0.70;;;;;;;-149.78;100.00;50420.59;4825707;29;20034;-77
2021/10/01 05:40:55;;;;;;;3.25;0.90;;;;;;;-149.78;100.00;50399.09;4842217;29;20038;-77
2021/10/01 05:43:24;;;;;;;2.28;0.80;;;;;;;-149.78;100.00;50377.56;4842309;29;20034;-77
2021/10/01 05:45:53;;;;;;;3.78;0.90;;;;;;;-149.78;100.00;50387.34;4837669;29;20037;-76
2021/10/01 05:48:20;;;;;;;1.83;0.77;;;;;;;-149.78;100.00;50389.31;4836415;29;20034;-73
2021/10/01 05:50:52;;;;;;;1.58;0.85;;;;;;;-149.78;100.00;50369.75;4834097;29;20034;-74
2021/10/01 05:56:03;;;;;;;1.17;0.65;;;;;;;-149.78;100.00;50397.13;4832044;29;20049;-72
2021/10/01 05:58:29;;;;;;;2.65;1.02;;;;;;;-149.78;100.00;50412.78;4829456;29;20042;-73
2021/10/01 06:00:57;;;;;;;1.25;0.77;;;;;;;-149.78;100.00;50391.25;4830631;29;20126;-76
2021/10/01 06:03:23;;;;;;;2.10;0.93;;;;;;;-149.78;100.00;50389.31;4830685;29;20045;-75
2021/10/01 06:05:49;;;;;;;2.10;1.00;;;;;;;-149.78;100.00;50395.16;4833295;29;20144;-75
2021/10/01 06:08:15;;;;;;;1.50;1.10;;;;;;;-149.78;100.00;50397.13;4832164;29;20133;-75
2021/10/01 06:10:40;;;;;;;2.28;1.20;;;;;;;-149.78;100.00;50412.78;4822141;29;20086;-76
2021/10/01 06:13:06;;;;;;;1.48;1.17;;;;;;;-149.78;100.00;50401.03;4836012;29;20037;-75
2021/10/01 06:15:32;;;;;;;3.60;1.17;;;;;;;-149.78;100.00;50397.13;4831010;29;20467;-75
2021/10/01 06:17:57;;;;;;;2.65;1.00;;;;;;;-149.78;100.00;50404.94;4839514;29;20034;-75
2021/10/01 06:20:24;;;;;;;2.65;1.10;;;;;;;-149.78;100.00;50418.63;4840538;29;20110;-73
2021/10/01 06:22:49;;;;;;;3.13;1.08;;;;;;;-149.78;100.00;50393.22;4811976;29;20041;-70
2021/10/01 06:25:15;;;;;;;2.25;1.00;;;;;;;-149.78;100.00;50404.94;4834425;29;20105;-77
2021/10/01 06:27:41;;;;;;;1.30;1.10;;;;;;;-149.78;100.00;50393.22;4806660;29;20072;-75
2021/10/01 06:30:09;;;;;;;1.65;1.10;;;;;;;-149.78;100.00;50432.31;4823936;29;20086;-74
2021/10/01 06:32:35;;;;;;;3.50;1.00;;;;;;;-149.78;100.00;50416.69;4807815;29;20074;-71
2021/10/01 06:35:05;;;;;;;4.40;1.15;;;;;;;-149.78;100.00;50404.94;4825927;29;20125;-76
2021/10/01 06:37:32;;;;;;;1.23;0.98;;;;;;;-149.78;100.00;50365.84;4823940;29;20054;-75
2021/10/01 06:39:57;;;;;;;2.63;1.05;;;;;;;-149.78;100.00;50397.13;4830782;29;20033;-70
2021/10/01 06:42:24;;;;;;;3.33;0.93;;;;;;;-149.78;100.00;50395.16;4839589;29;20399;-71
2021/10/01 06:44:52;;;;;;;1.80;1.10;;;;;;;-149.78;100.00;50350.19;4812762;29;20042;-74
2021/10/01 06:50:21;;;;;;;1.73;0.90;;;;;;;-149.78;100.00;50385.38;4836867;29;20034;-76
2021/10/01 08:20:25;;;;;;;2.92;0.82;;;;;;;-149.78;72.13;50174.19;4830505;29;20058;-76
2021/10/01 08:22:51;;;;;;;2.60;0.90;;;;;;;-149.78;68.17;50138.97;4843523;29;20030;-76
2021/10/01 08:25:17;;;;;;;2.47;0.98;;;;;;;-149.78;64.10;50127.25;4828093;29;20390;-76
2021/10/01 08:27:42;;;;;;;4.57;1.05;;;;;;;-149.78;68.50;50217.19;4833427;29;20065;-76
2021/10/01 08:30:10;;;;;;;2.83;1.15;;;;;;;-149.78;70.67;50150.72;4844498;29;20030;-76
2021/10/01 08:32:37;;;;;;;2.83;1.00;;;;;;;-149.78;65.11;50113.56;4842661;29;20049;-73
2021/10/01 08:35:03;;;;;;;3.00;0.80;;;;;;;-149.78;61.72;50092.03;4828180;29;20475;-74
2021/10/01 08:37:29;;;;;;;5.45;1.00;;;;;;;-149.78;60.37;50095.94;4827935;29;20042;-73
2021/10/01 08:39:54;;;;;;;3.70;0.95;;;;;;;-149.78;59.81;50135.06;4843158;29;20487;-74
2021/10/01 08:42:21;;;;;;;6.07;1.00;;;;;;;-149.78;58.58;50138.97;4843318;29;20042;-73
2021/10/01 08:44:48;;;;;;;2.13;0.82;;;;;;;-149.78;61.15;50170.25;4810027;29;20038;-73
2021/10/01 08:47:16;;;;;;;3.10;1.25;;;;;;;-149.78;60.91;50135.06;4841285;29;20598;-73
2021/10/01 08:49:48;;;;;;;4.53;1.35;;;;;;;-149.78;61.20;50137.03;4834526;29;20410;-73
2021/10/01 08:52:13;;;;;;;4.45;1.60;;;;;;;-149.78;63.53;50140.94;4838084;29;20090;-73
2021/10/01 08:54:41;;;;;;;7.22;1.63;;;;;;;-149.78;74.56;50225.03;4839614;29;20038;-73
2021/10/01 08:57:11;;;;;;;5.03;1.92;;;;;;;-149.78;91.15;50271.97;4820724;29;20605;-74
2021/10/01 08:59:37;;;;;;;4.78;1.45;;;;;;;-149.78;100.00;50268.03;4839060;29;20039;-74
2021/10/01 09:02:03;;;;;;;3.42;1.45;;;;;;;-149.78;100.00;50307.16;4838515;29;20048;-74
2021/10/01 09:04:28;;;;;;;4.28;1.30;;;;;;;-149.78;100.00;50291.50;4837410;29;20034;-74
2021/10/01 09:06:56;;;;;;;10.30;1.73;;;;;;;-149.78;100.00;50305.22;4839400;29;20041;-73
2021/10/01 09:09:43;;;;;;;8.48;1.40;;;;;;;-149.78;100.00;50299.34;4837989;29;20038;-75
2021/10/01 09:12:13;;;;;;;8.05;1.55;;;;;;;-149.78;100.00;50361.91;4838647;29;20432;-75
2021/10/01 09:14:56;;;;;;;9.25;1.38;;;;;;;-149.78;100.00;50299.34;4843217;29;20049;-73
2021/10/01 09:17:27;;;;;;;5.93;1.33;;;;;;;-149.78;100.00;50311.06;4824750;29;20372;-73
2021/10/01 09:19:55;;;;;;;9.20;1.48;;;;;;;-149.78;100.00;50311.06;4836599;29;20038;-75
2021/10/01 09:22:33;;;;;;;4.13;1.30;;;;;;;-149.78;100.00;50305.22;4840014;29;20038;-75
2021/10/01 09:25:24;;;;;;;5.72;1.67;;;;;;;-149.78;100.00;50307.16;4820652;29;20034;-75
2021/10/01 09:27:53;;;;;;;8.95;1.45;;;;;;;-149.78;100.00;50326.72;4822138;29;20034;-74
2021/10/01 09:30:21;;;;;;;7.93;1.77;;;;;;;-149.78;100.00;50334.53;4824339;29;20038;-74
2021/10/01 09:33:06;;;;;;;3.33;1.55;;;;;;;-149.78;100.00;50340.41;4841413;29;20033;-74
2021/10/01 09:35:32;;;;;;;9.57;1.63;;;;;;;-149.78;100.00;50354.09;4827162;29;20038;-74
2021/10/01 09:38:22;;;;;;;4.22;1.50;;;;;;;-149.78;100.00;50307.16;4783424;29;20038;-74
2021/10/01 09:41:12;;;;;;;5.32;1.40;;;;;;;-149.78;100.00;50279.78;4841208;29;20388;-74
2021/10/01 09:43:37;;;;;;;7.13;2.00;;;;;;;-149.78;100.00;50236.75;4837254;29;20506;-74
2021/10/01 09:46:07;;;;;;;5.22;1.70;;;;;;;-149.78;92.29;50242.63;4841169;29;20117;-74
2021/10/01 09:48:38;;;;;;;3.17;1.65;;;;;;;-149.78;85.42;50236.75;4826329;29;20526;-74
2021/10/01 09:51:14;;;;;;;7.47;2.17;;;;;;;-149.78;97.02;50264.13;4842224;29;20033;-73
2021/10/01 09:53:51;;;;;;;5.18;1.80;;;;;;;-149.78;100.00;50268.03;4843128;29;20038;-73
2021/10/01 09:56:28;;;;;;;4.72;2.00;;;;;;;-149.78;100.00;50295.44;4825285;29;20367;-74
2021/10/01 09:59:09;;;;;;;4.68;1.45;;;;;;;-149.78;100.00;50354.09;4826574;29;20048;-74
2021/10/01 10:02:15;;;;;;;3.25;1.23;;;;;;;-149.78;100.00;50314.97;4836148;29;20478;-74
2021/10/01 10:04:52;;;;;;;4.45;1.20;;;;;;;-149.78;100.00;50342.38;4823995;29;20098;-74
2021/10/01 10:07:20;;;;;;;4.55;1.25;;;;;;;-149.78;100.00;50340.41;4838775;29;20042;-73
2021/10/01 10:09:53;;;;;;;5.30;1.30;;;;;;;-149.78;100.00;50361.91;4837621;29;20046;-74
2021/10/01 10:12:24;;;;;;;2.92;1.05;;;;;;;-149.78;100.00;50248.50;4837097;29;20034;-74
2021/10/01 10:14:53;;;;;;;3.63;0.90;;;;;;;-149.78;100.00;50234.81;4826589;29;20049;-78
2021/10/01 10:17:25;;;;;;;5.97;1.08;;;;;;;-149.78;79.38;50209.38;4838928;29;20495;-76
2021/10/01 10:19:54;;;;;;;6.25;0.90;;;;;;;-149.78;77.28;50182.00;4832099;29;20130;-74
2021/10/01 10:22:21;;;;;;;2.97;0.90;;;;;;;-149.78;66.95;50205.47;4838030;29;20102;-74
2021/10/01 10:24:49;;;;;;;3.78;1.20;;;;;;;-149.78;64.47;50154.63;4833901;29;20490;-74
2021/10/01 10:27:15;;;;;;;3.15;1.70;;;;;;;-149.78;56.13;50142.88;4824961;29;20454;-74
2021/10/01 10:29:43;;;;;;;2.85;0.80;;;;;;;-149.78;58.65;50166.34;4822638;29;20054;-73
2021/10/01 10:32:11;;;;;;;1.85;1.08;;;;;;;-149.78;58.23;50164.41;4837761;29;20072;-76
2021/10/01 10:34:50;;;;;;;2.40;1.10;;;;;;;-149.78;53.85;50111.59;4821403;29;20090;-74
2021/10/01 10:37:17;;;;;;;3.28;1.33;;;;;;;-149.78;55.44;50129.19;4829358;29;20471;-74
2021/10/01 10:39:45;;;;;;;7.22;2.35;;;;;;;-149.78;51.79;50142.88;4840689;29;20061;-73
2021/10/01 10:42:14;;;;;;;2.53;1.00;;;;;;;-149.78;50.73;50142.88;4823387;29;20045;-73
2021/10/01 10:44:45;;;;;;;0.88;0.70;;;;;;;-149.78;51.57;50123.34;4837741;29;20037;-73
2021/10/01 10:47:40;;;;;;;2.42;1.00;;;;;;;-149.78;49.71;50111.59;4839780;29;20038;-74
2021/10/01 10:50:21;;;;;;;2.10;0.63;;;;;;;-149.78;51.66;50158.53;4833569;29;20038;-73
2021/10/01 10:53:24;;;;;;;2.35;0.70;;;;;;;-149.78;47.92;50109.66;4836120;29;20114;-71
2021/10/01 10:55:54;;;;;;;1.10;0.38;;;;;;;-149.78;48.66;50127.25;4824727;29;20038;-73
2021/10/01 10:58:22;;;;;;;5.15;0.75;;;;;;;-149.78;48.22;50150.72;4841449;29;20045;-73
2021/10/01 11:00:52;;;;;;;4.15;0.88;;;;;;;-149.78;51.12;50162.44;4839604;29;20034;-73
2021/10/01 11:03:20;;;;;;;4.35;0.80;;;;;;;-149.78;51.34;50131.16;4841829;29;20030;-73
2021/10/01 11:06:07;;;;;;;2.58;0.98;;;;;;;-149.78;47.59;50123.34;4809184;29;20037;-73
2021/10/01 11:08:34;;;;;;;3.72;0.95;;;;;;;-149.78;46.40;50142.88;4839930;29;20440;-73
2021/10/01 11:11:00;;;;;;;1.98;0.82;;;;;;;-149.78;47.48;50127.25;4838483;29;20081;-73
2021/10/01 11:13:32;;;;;;;3.15;1.00;;;;;;;-149.78;48.20;50146.81;4824882;29;20037;-73
2021/10/01 11:16:11;;;;;;;3.97;1.30;;;;;;;-149.78;48.62;50142.88;4839958;29;20086;-73
2021/10/01 11:18:46;;;;;;;5.70;1.40;;;;;;;-149.78;49.90;50123.34;4837541;29;20030;-73
2021/10/01 11:21:32;;;;;;;3.70;1.05;;;;;;;-149.78;51.58;50174.19;4841067;29;20414;-72
2021/10/01 11:24:08;;;;;;;4.13;1.00;;;;;;;-149.78;53.58;50168.31;4824686;29;20029;-73
2021/10/01 11:26:43;;;;;;;9.05;1.35;;;;;;;-149.78;58.22;50217.19;4841805;29;20459;-73
2021/10/01 11:29:34;;;;;;;3.10;1.20;;;;;;;-149.78;58.27;50217.19;4837644;29;20065;-73
2021/10/01 11:32:04;;;;;;;3.43;1.17;;;;;;;-149.78;59.13;50201.56;4838853;29;20030;-73
2021/10/01 11:34:43;;;;;;;5.05;1.40;;;;;;;-149.78;63.71;50240.66;4837627;29;20079;-72
2021/10/01 11:37:27;;;;;;;4.32;1.10;;;;;;;-149.78;60.15;50178.09;4821123;29;20117;-72
2021/10/01 11:39:57;;;;;;;5.20;1.15;;;;;;;-149.78;61.22;50240.66;4839047;29;20050;-72
2021/10/01 11:42:36;;;;;;;6.85;1.10;;;;;;;-149.78;59.86;50221.13;4840084;29;20038;-72
2021/10/01 11:45:14;;;;;;;5.97;1.00;;;;;;;-149.78;59.43;50217.19;4825182;29;20371;-72
2021/10/01 11:47:49;;;;;;;4.82;0.95;;;;;;;-149.78;57.75;50211.34;4842330;29;20049;-72
2021/10/01 11:50:16;;;;;;;2.85;1.02;;;;;;;-149.78;60.35;50189.81;4840725;29;20065;-72
2021/10/01 11:52:46;;;;;;;2.58;1.13;;;;;;;-149.78;60.18;50248.50;4839707;29;20041;-73
2021/10/01 11:55:13;;;;;;;7.80;1.20;;;;;;;-149.78;62.38;50244.59;4834844;29;20049;-73
2021/10/01 11:57:43;;;;;;;4.75;0.90;;;;;;;-149.78;58.06;50225.03;4827922;29;20572;-74
2021/10/01 12:00:11;;;;;;;3.47;0.80;;;;;;;-149.78;57.11;50252.41;4844393;29;20034;-74
2021/10/01 12:02:45;;;;;;;3.95;0.93;;;;;;;-149.78;59.69;50256.31;4843095;29;20041;-73
2021/10/01 12:05:32;;;;;;;4.07;1.05;;;;;;;-149.78;61.95;50248.50;4842410;29;20033;-73
2021/10/01 12:08:01;;;;;;;3.13;0.80;;;;;;;-149.78;62.33;50293.47;4837295;29;20165;-73
2021/10/01 12:10:28;;;;;;;5.72;1.40;;;;;;;-149.78;58.30;50246.53;4844341;29;20030;-73
2021/10/01 12:13:02;;;;;;;4.65;1.10;;;;;;;-149.78;61.05;50260.22;4842763;29;20038;-73
2021/10/01 12:15:54;;;;;;;8.77;1.45;;;;;;;-149.78;59.55;50260.22;4843931;29;20079;-72
2021/10/01 12:18:41;;;;;;;1.75;0.70;;;;;;;-149.78;58.22;50271.97;4841244;29;20452;-72
2021/10/01 12:21:11;;;;;;;5.32;0.80;;;;;;;-149.78;59.21;50260.22;4841745;29;20581;-72
2021/10/01 12:23:43;;;;;;;2.90;0.70;;;;;;;-149.78;56.22;50252.41;4833005;29;20034;-72
2021/10/01 12:26:24;;;;;;;2.72;0.73;;;;;;;-149.78;59.57;50256.31;4836030;29;20453;-73
2021/10/01 12:28:56;;;;;;;5.20;1.95;;;;;;;-149.78;58.65;50256.31;4826495;29;20372;-73
2021/10/01 12:31:23;;;;;;;5.88;0.60;;;;;;;-149.78;58.09;50279.78;4842142;29;20087;-72
2021/10/01 12:33:50;;;;;;;4.07;0.98;;;;;;;-149.78;58.12;50297.38;4843652;29;20057;-73
2021/10/01 12:36:17;;;;;;;4.55;1.00;;;;;;;-149.78;59.49;50264.13;4827271;29;20121;-73
2021/10/01 12:38:43;;;;;;;2.15;1.00;;;;;;;-149.78;59.81;50273.91;4843031;29;20034;-72
2021/10/01 12:41:12;;;;;;;4.53;1.20;;;;;;;-149.78;61.36;50311.06;4826489;29;20360;-72
2021/10/01 12:43:47;;;;;;;3.30;1.05;;;;;;;-149.78;60.13;50307.16;4842544;29;20060;-72
2021/10/01 12:46:37;;;;;;;4.22;1.20;;;;;;;-149.78;61.59;50326.72;4842912;29;20444;-72
2021/10/01 12:49:14;;;;;;;2.58;1.00;;;;;;;-149.78;62.96;50279.78;4843158;29;20072;-72
2021/10/01 12:51:40;;;;;;;3.60;1.30;;;;;;;-149.78;62.92;50271.97;4842406;29;20045;-72
2021/10/01 12:54:23;;;;;;;4.38;1.30;;;;;;;-149.78;62.39;50275.88;4841700;29;20046;-72
2021/10/01 12:57:12;;;;;;;2.80;0.90;;;;;;;-149.78;62.26;50307.16;4842435;29;20374;-72
2021/10/01 12:59:41;;;;;;;1.13;0.68;;;;;;;-149.78;59.35;50275.88;4837571;29;20034;-72